Terminal Aerodrome Forecast
Issued by NWS

Current Version | Previous Version | Text Only | Print | Product List | Glossary On
Versions: 1 2 3 4 5 6 7 8 9 10 11 12 13 14 15 16 17 18 19 20 21
000
FTUS43 KDLH 252100 AAB
TAFBRD
TAF AMD
KBRD 252103Z 2521/2618 08007KT 1 1/2SM -RA BR OVC004
      TEMPO 2521/2524 3SM -RA BR OVC010
     FM260000 VRB04KT 3SM BR VCSH OVC015
     FM260600 VRB05KT 2SM BR OVC011
     FM261400 VRB05KT P6SM OVC030=

USA.gov is the U.S. government's official web portal to all federal, state and local government web resources and services.